Time;durP1;ratioP1;P1;durP2;ratioP2;P2;SDS_P1;SDS_P2;PMS_P1;PMS_P2;Temp;Humidity;BMP_temperature;BMP_pressure;BME280_temperature;BME280_humidity;BME280_pressure;Samples;Min_cycle;Max_cycle;Signal;HPM_P1;HPM_P2
2023/09/01 00:00:15;;;;;;;7.35;2.60;;;;;;;;;;5005307;28;20203;-71
2023/09/01 00:02:42;;;;;;;4.63;2.83;;;;;;;;;;5004749;28;20309;-71
2023/09/01 00:05:08;;;;;;;4.00;2.50;;;;;;;;;;5002350;28;20198;-71
2023/09/01 00:07:35;;;;;;;2.65;2.38;;;;;;;;;;5001954;28;20203;-71
2023/09/01 00:10:01;;;;;;;4.35;2.65;;;;;;;;;;5003311;28;20206;-71
2023/09/01 00:12:27;;;;;;;4.70;2.72;;;;;;;;;;5004819;28;20225;-71
2023/09/01 00:14:54;;;;;;;2.38;2.17;;;;;;;;;;5004236;28;20222;-71
2023/09/01 00:17:21;;;;;;;2.08;1.98;;;;;;;;;;5001601;28;20199;-71
2023/09/01 00:19:48;;;;;;;2.72;2.50;;;;;;;;;;5001714;28;20218;-70
2023/09/01 00:22:14;;;;;;;5.47;2.42;;;;;;;;;;5003834;28;20267;-70
2023/09/01 00:24:40;;;;;;;6.50;3.03;;;;;;;;;;5004625;28;20210;-70
2023/09/01 00:27:06;;;;;;;3.25;2.55;;;;;;;;;;5002485;28;20206;-69
2023/09/01 00:29:34;;;;;;;5.03;2.50;;;;;;;;;;5000606;28;20207;-70
2023/09/01 00:32:01;;;;;;;4.57;2.88;;;;;;;;;;5001526;28;20318;-70
2023/09/01 00:34:30;;;;;;;6.38;2.92;;;;;;;;;;5004137;28;20206;-70
2023/09/01 00:36:56;;;;;;;6.03;2.50;;;;;;;;;;5003955;28;20547;-70
2023/09/01 00:39:22;;;;;;;3.00;2.63;;;;;;;;;;4999231;28;20436;-70
2023/09/01 00:41:49;;;;;;;4.45;2.92;;;;;;;;;;4998616;28;20219;-70
2023/09/01 00:44:15;;;;;;;4.43;2.50;;;;;;;;;;5002314;28;20199;-70
2023/09/01 00:46:43;;;;;;;5.25;2.75;;;;;;;;;;5002157;28;20205;-70
2023/09/01 00:49:10;;;;;;;4.15;2.50;;;;;;;;;;5000008;28;20293;-70
2023/09/01 00:51:38;;;;;;;5.13;2.60;;;;;;;;;;4998648;28;20222;-70
2023/09/01 00:54:04;;;;;;;3.25;2.40;;;;;;;;;;5001705;28;20569;-70
2023/09/01 00:56:31;;;;;;;4.10;2.58;;;;;;;;;;5004148;28;20218;-70
2023/09/01 00:58:57;;;;;;;6.63;2.75;;;;;;;;;;5003699;28;20206;-70
2023/09/01 01:01:23;;;;;;;5.18;2.25;;;;;;;;;;5000359;28;20223;-69
2023/09/01 01:03:51;;;;;;;5.10;2.70;;;;;;;;;;5000895;28;20214;-69
2023/09/01 01:06:19;;;;;;;5.85;2.88;;;;;;;;;;5003887;28;20241;-72
2023/09/01 01:08:59;;;;;;;3.35;2.53;;;;;;;;;;5004323;28;20275;-70
2023/09/01 01:11:28;;;;;;;5.85;2.63;;;;;;;;;;5004501;28;20229;-70
2023/09/01 01:13:56;;;;;;;5.15;2.60;;;;;;;;;;5003809;28;20202;-71
2023/09/01 01:16:24;;;;;;;7.78;2.63;;;;;;;;;;5004446;28;20214;-71
2023/09/01 01:18:52;;;;;;;4.15;2.67;;;;;;;;;;5003939;28;20217;-71
2023/09/01 01:21:22;;;;;;;5.35;2.80;;;;;;;;;;5000354;28;20223;-71
2023/09/01 01:23:51;;;;;;;3.58;2.97;;;;;;;;;;5000403;28;20670;-71
2023/09/01 01:26:18;;;;;;;7.70;2.78;;;;;;;;;;5002986;28;20206;-71
2023/09/01 01:28:44;;;;;;;4.88;2.45;;;;;;;;;;5003839;28;20234;-71
2023/09/01 01:31:11;;;;;;;7.22;2.50;;;;;;;;;;5001684;28;20250;-71
2023/09/01 01:33:42;;;;;;;3.97;2.78;;;;;;;;;;5000309;28;20232;-72
2023/09/01 01:36:16;;;;;;;5.90;2.75;;;;;;;;;;5001752;28;20215;-71
2023/09/01 01:38:44;;;;;;;5.18;2.55;;;;;;;;;;5003461;28;20198;-71
2023/09/01 01:41:14;;;;;;;2.75;2.00;;;;;;;;;;5000780;28;20701;-71
2023/09/01 01:43:42;;;;;;;5.45;2.55;;;;;;;;;;5000270;28;20214;-71
2023/09/01 01:46:08;;;;;;;3.35;2.47;;;;;;;;;;5001520;28;20198;-70
2023/09/01 01:48:38;;;;;;;5.70;2.47;;;;;;;;;;5003500;28;20202;-70
2023/09/01 01:51:05;;;;;;;2.78;2.50;;;;;;;;;;5002511;28;20258;-70
2023/09/01 01:53:32;;;;;;;4.47;2.60;;;;;;;;;;4999753;28;20199;-71
2023/09/01 01:55:58;;;;;;;4.85;2.40;;;;;;;;;;5000595;28;20219;-71
2023/09/01 01:58:26;;;;;;;5.93;2.72;;;;;;;;;;5003793;28;20194;-70
2023/09/01 02:00:53;;;;;;;4.88;2.65;;;;;;;;;;5003252;28;20253;-70
2023/09/01 02:03:19;;;;;;;3.42;2.63;;;;;;;;;;5000429;28;20622;-70
2023/09/01 02:05:45;;;;;;;3.42;2.65;;;;;;;;;;5000042;28;20277;-70
2023/09/01 02:08:12;;;;;;;3.35;2.63;;;;;;;;;;5001775;28;20206;-70
2023/09/01 02:10:38;;;;;;;6.85;2.10;;;;;;;;;;5003349;28;20198;-70
2023/09/01 02:13:04;;;;;;;2.97;2.47;;;;;;;;;;5002625;28;20207;-70
2023/09/01 02:15:32;;;;;;;4.78;2.50;;;;;;;;;;4999854;28;20301;-70
2023/09/01 02:17:58;;;;;;;3.28;2.70;;;;;;;;;;4999846;28;20611;-70
2023/09/01 02:20:26;;;;;;;2.63;2.53;;;;;;;;;;5002658;28;20590;-70
2023/09/01 02:22:52;;;;;;;4.50;1.92;;;;;;;;;;5002939;28;20222;-70
2023/09/01 02:25:19;;;;;;;2.63;1.95;;;;;;;;;;5000774;28;20767;-70
2023/09/01 02:27:45;;;;;;;2.45;1.90;;;;;;;;;;4999938;28;20211;-70
2023/09/01 02:30:12;;;;;;;3.85;2.20;;;;;;;;;;5000938;28;20226;-71
2023/09/01 02:32:40;;;;;;;3.55;2.08;;;;;;;;;;5002844;28;20229;-70
2023/09/01 02:35:08;;;;;;;2.35;1.80;;;;;;;;;;5002268;28;20210;-71
2023/09/01 02:37:34;;;;;;;5.25;2.10;;;;;;;;;;4999833;28;20570;-71
2023/09/01 02:40:00;;;;;;;2.50;1.58;;;;;;;;;;4999688;28;20218;-71
2023/09/01 02:42:27;;;;;;;3.60;1.30;;;;;;;;;;5002395;28;20249;-71
2023/09/01 02:44:54;;;;;;;2.15;1.65;;;;;;;;;;5002983;28;20662;-72
2023/09/01 02:47:20;;;;;;;1.35;1.33;;;;;;;;;;5000580;28;20207;-72
2023/09/01 02:49:48;;;;;;;1.35;1.25;;;;;;;;;;4999672;28;20207;-71
2023/09/01 02:52:14;;;;;;;3.50;1.20;;;;;;;;;;5001246;28;20703;-71
2023/09/01 02:54:40;;;;;;;3.63;1.33;;;;;;;;;;5006561;28;20217;-71
2023/09/01 02:57:06;;;;;;;2.72;1.35;;;;;;;;;;5006032;28;20229;-71
2023/09/01 02:59:33;;;;;;;6.80;1.45;;;;;;;;;;5003114;28;20220;-71
2023/09/01 03:01:59;;;;;;;3.55;1.20;;;;;;;;;;5002648;28;20219;-71
2023/09/01 03:04:25;;;;;;;1.40;1.35;;;;;;;;;;5005701;28;20203;-71
2023/09/01 03:06:53;;;;;;;4.57;1.52;;;;;;;;;;5006442;28;20205;-71
2023/09/01 03:09:20;;;;;;;2.10;1.50;;;;;;;;;;5004561;28;20199;-71
2023/09/01 03:11:46;;;;;;;2.55;1.40;;;;;;;;;;5002600;28;20298;-71
2023/09/01 03:14:12;;;;;;;3.00;1.30;;;;;;;;;;5003522;28;20214;-71
2023/09/01 03:16:38;;;;;;;3.08;1.17;;;;;;;;;;5006082;28;20215;-71
2023/09/01 03:19:05;;;;;;;1.55;1.30;;;;;;;;;;5006305;28;20203;-71
2023/09/01 03:21:31;;;;;;;2.80;1.27;;;;;;;;;;5002398;28;20237;-71
2023/09/01 03:23:59;;;;;;;4.97;1.27;;;;;;;;;;5002893;28;20207;-71
2023/09/01 03:26:25;;;;;;;6.13;1.50;;;;;;;;;;5005024;28;20203;-71
2023/09/01 03:28:51;;;;;;;4.55;1.38;;;;;;;;;;5005908;28;20206;-71
2023/09/01 03:31:18;;;;;;;1.85;1.38;;;;;;;;;;5003805;28;20254;-71
2023/09/01 03:33:44;;;;;;;2.97;1.27;;;;;;;;;;5002326;28;20653;-71
2023/09/01 03:36:11;;;;;;;1.42;1.10;;;;;;;;;;5002522;28;20706;-71
2023/09/01 03:38:37;;;;;;;2.55;1.50;;;;;;;;;;5005649;28;20232;-71
2023/09/01 03:41:05;;;;;;;3.25;1.35;;;;;;;;;;5005486;28;20230;-71
2023/09/01 03:43:31;;;;;;;3.17;1.08;;;;;;;;;;5002125;28;20596;-71
2023/09/01 03:45:58;;;;;;;7.63;1.63;;;;;;;;;;5002127;28;20211;-71
2023/09/01 03:48:25;;;;;;;1.50;1.40;;;;;;;;;;5003983;28;20638;-71
2023/09/01 03:51:05;;;;;;;4.72;1.13;;;;;;;;;;5005362;28;20218;-71
2023/09/01 03:53:31;;;;;;;4.20;1.50;;;;;;;;;;5002297;28;20682;-71
2023/09/01 03:55:57;;;;;;;5.63;1.50;;;;;;;;;;5001823;28;20726;-71
2023/09/01 03:58:25;;;;;;;2.35;1.30;;;;;;;;;;5003417;28;20226;-71
2023/09/01 04:00:51;;;;;;;2.80;1.20;;;;;;;;;;5005163;28;20214;-71
2023/09/01 04:03:17;;;;;;;3.10;1.30;;;;;;;;;;5003738;28;20245;-71
2023/09/01 04:05:44;;;;;;;2.20;1.38;;;;;;;;;;5001486;28;20199;-71
2023/09/01 04:08:10;;;;;;;3.70;1.35;;;;;;;;;;5002009;28;20211;-71
2023/09/01 04:10:39;;;;;;;2.33;1.25;;;;;;;;;;5004896;28;20202;-71
2023/09/01 04:13:05;;;;;;;1.70;1.13;;;;;;;;;;5004606;28;20205;-71
2023/09/01 04:15:33;;;;;;;1.90;1.30;;;;;;;;;;5002366;28;20206;-72
2023/09/01 04:17:59;;;;;;;1.92;1.40;;;;;;;;;;5001675;28;20583;-64
2023/09/01 04:20:25;;;;;;;1.73;1.40;;;;;;;;;;5003176;28;20211;-63
2023/09/01 04:22:51;;;;;;;2.50;1.30;;;;;;;;;;5004554;28;20214;-63
2023/09/01 04:25:18;;;;;;;1.75;1.35;;;;;;;;;;5003953;28;20198;-63
2023/09/01 04:27:44;;;;;;;1.83;1.50;;;;;;;;;;5001232;28;20245;-63
2023/09/01 04:30:11;;;;;;;1.95;1.33;;;;;;;;;;5001393;28;20203;-63
2023/09/01 04:32:40;;;;;;;1.35;1.17;;;;;;;;;;5004047;28;20222;-63
2023/09/01 04:35:07;;;;;;;2.72;1.52;;;;;;;;;;5004639;28;20213;-63
2023/09/01 04:37:33;;;;;;;1.20;1.10;;;;;;;;;;5001730;28;20222;-63
2023/09/01 04:40:00;;;;;;;3.53;1.30;;;;;;;;;;5000923;28;20622;-63
2023/09/01 04:42:26;;;;;;;2.33;1.40;;;;;;;;;;5002345;28;20227;-64
2023/09/01 04:44:52;;;;;;;2.58;1.60;;;;;;;;;;5004531;28;20283;-63
2023/09/01 04:47:18;;;;;;;2.38;1.30;;;;;;;;;;5003808;28;20209;-63
2023/09/01 04:49:46;;;;;;;1.08;1.08;;;;;;;;;;5000949;28;20230;-64
2023/09/01 04:52:12;;;;;;;1.85;1.70;;;;;;;;;;5000873;28;20227;-63
2023/09/01 04:54:38;;;;;;;2.17;1.30;;;;;;;;;;5003687;28;20626;-63
2023/09/01 04:57:05;;;;;;;2.60;1.17;;;;;;;;;;5004123;28;20633;-63
2023/09/01 04:59:32;;;;;;;2.83;1.80;;;;;;;;;;5001960;28;20210;-64
2023/09/01 05:01:58;;;;;;;2.63;2.10;;;;;;;;;;5000469;28;20245;-63
2023/09/01 05:04:24;;;;;;;4.13;2.00;;;;;;;;;;5001644;28;20214;-63
2023/09/01 05:06:52;;;;;;;3.03;2.22;;;;;;;;;;5003995;28;20275;-63
2023/09/01 05:09:19;;;;;;;2.13;1.77;;;;;;;;;;5003517;28;20284;-63
2023/09/01 05:11:45;;;;;;;3.45;1.90;;;;;;;;;;5000540;28;20215;-63
2023/09/01 05:14:11;;;;;;;3.85;1.85;;;;;;;;;;5000751;28;20225;-64
2023/09/01 05:16:37;;;;;;;4.85;2.40;;;;;;;;;;5001994;28;20227;-63
2023/09/01 05:19:04;;;;;;;2.13;1.90;;;;;;;;;;5003742;28;20202;-63
2023/09/01 05:21:30;;;;;;;3.55;2.28;;;;;;;;;;5001802;28;20230;-63
2023/09/01 05:23:57;;;;;;;1.80;1.70;;;;;;;;;;5000574;28;20206;-63
2023/09/01 05:26:24;;;;;;;1.77;1.67;;;;;;;;;;5000985;28;20195;-63
2023/09/01 05:28:50;;;;;;;1.85;1.50;;;;;;;;;;5003652;28;20199;-64
2023/09/01 05:31:16;;;;;;;2.60;1.30;;;;;;;;;;5003423;28;20222;-64
2023/09/01 05:33:43;;;;;;;3.30;1.70;;;;;;;;;;5000458;28;20254;-63
2023/09/01 05:36:09;;;;;;;4.70;1.80;;;;;;;;;;4999975;28;20223;-63
2023/09/01 05:38:35;;;;;;;2.80;1.80;;;;;;;;;;5002097;28;20234;-64
2023/09/01 05:41:03;;;;;;;6.13;2.00;;;;;;;;;;5003563;28;20244;-63
2023/09/01 05:43:30;;;;;;;3.30;1.60;;;;;;;;;;5002143;28;20224;-63
2023/09/01 05:45:57;;;;;;;2.05;1.95;;;;;;;;;;5000109;28;20206;-63
2023/09/01 05:48:23;;;;;;;3.90;2.13;;;;;;;;;;5000232;28;20230;-63
2023/09/01 05:50:49;;;;;;;6.40;2.60;;;;;;;;;;5003202;28;20206;-63
2023/09/01 05:53:16;;;;;;;3.88;2.50;;;;;;;;;;5003069;28;20666;-62
2023/09/01 05:55:42;;;;;;;5.18;2.50;;;;;;;;;;5000539;28;20302;-62
2023/09/01 05:58:09;;;;;;;4.05;2.28;;;;;;;;;;4999766;28;20227;-63
2023/09/01 06:00:36;;;;;;;3.85;1.98;;;;;;;;;;5001707;28;20216;-63
2023/09/01 06:03:03;;;;;;;2.42;1.92;;;;;;;;;;5003095;28;20202;-62
2023/09/01 06:05:30;;;;;;;2.50;1.70;;;;;;;;;;5002096;28;20234;-63
2023/09/01 06:07:56;;;;;;;1.52;1.42;;;;;;;;;;5000063;28;20202;-63
2023/09/01 06:10:22;;;;;;;1.77;1.58;;;;;;;;;;4999706;28;20675;-63
2023/09/01 06:12:48;;;;;;;1.55;1.45;;;;;;;;;;5002976;28;20219;-63
2023/09/01 06:15:16;;;;;;;1.75;1.65;;;;;;;;;;5003197;28;20210;-63
2023/09/01 06:17:42;;;;;;;1.75;1.45;;;;;;;;;;5000239;28;20223;-63
2023/09/01 06:20:09;;;;;;;5.45;1.70;;;;;;;;;;4999719;28;20583;-62
2023/09/01 06:22:36;;;;;;;1.88;1.40;;;;;;;;;;5000812;28;20725;-62
2023/09/01 06:25:26;;;;;;;2.05;1.20;;;;;;;;;;5009150;28;20217;-60
2023/09/01 06:27:52;;;;;;;2.35;1.33;;;;;;;;;;4996367;28;20207;-61
2023/09/01 06:30:20;;;;;;;1.40;1.30;;;;;;;;;;4990196;28;20211;-62
2023/09/01 06:32:46;;;;;;;1.77;1.27;;;;;;;;;;4990050;28;20765;-62
2023/09/01 06:35:12;;;;;;;2.83;1.33;;;;;;;;;;4989692;28;20854;-61
2023/09/01 06:37:39;;;;;;;1.60;1.50;;;;;;;;;;4986556;28;20238;-62
2023/09/01 06:40:05;;;;;;;2.30;1.60;;;;;;;;;;4991219;28;20566;-62
2023/09/01 06:42:32;;;;;;;2.53;1.90;;;;;;;;;;4986004;28;20230;-61
2023/09/01 06:44:58;;;;;;;4.70;1.52;;;;;;;;;;4986984;28;20214;-61
2023/09/01 06:47:26;;;;;;;1.58;1.30;;;;;;;;;;4987158;28;20220;-61
2023/09/01 06:49:52;;;;;;;3.75;1.73;;;;;;;;;;4987134;28;20504;-62
2023/09/01 06:52:19;;;;;;;5.57;1.45;;;;;;;;;;4986492;28;20718;-62
2023/09/01 06:54:45;;;;;;;1.73;1.50;;;;;;;;;;4987017;28;20218;-62
2023/09/01 06:57:11;;;;;;;2.03;1.42;;;;;;;;;;5015152;23;20233;-66
2023/09/01 06:59:37;;;;;;;1.30;1.30;;;;;;;;;;5025759;28;20685;-65
2023/09/01 07:02:04;;;;;;;1.52;1.40;;;;;;;;;;5013220;28;20749;-66
2023/09/01 07:04:31;;;;;;;4.03;1.73;;;;;;;;;;5006770;28;20210;-67
2023/09/01 07:06:57;;;;;;;2.15;1.15;;;;;;;;;;5006094;28;20210;-67
2023/09/01 07:09:24;;;;;;;1.30;1.20;;;;;;;;;;5006857;28;20576;-66
2023/09/01 07:11:50;;;;;;;1.73;1.40;;;;;;;;;;5004995;28;20702;-67
2023/09/01 07:14:16;;;;;;;1.27;1.05;;;;;;;;;;5004129;28;20245;-67
2023/09/01 07:16:42;;;;;;;1.65;1.38;;;;;;;;;;5006954;28;20226;-67
2023/09/01 07:19:09;;;;;;;2.13;1.00;;;;;;;;;;5006635;28;20211;-67
2023/09/01 07:21:36;;;;;;;1.27;1.17;;;;;;;;;;5006568;28;20231;-65
2023/09/01 07:24:03;;;;;;;1.23;1.10;;;;;;;;;;5007825;28;20213;-65
2023/09/01 07:26:29;;;;;;;3.90;1.20;;;;;;;;;;5007062;28;20253;-66
2023/09/01 07:28:55;;;;;;;4.90;1.17;;;;;;;;;;5006277;28;20211;-66
2023/09/01 07:31:23;;;;;;;1.10;1.10;;;;;;;;;;5006943;28;20634;-66
2023/09/01 07:33:49;;;;;;;1.38;1.20;;;;;;;;;;5007017;28;20607;-65
2023/09/01 07:36:15;;;;;;;3.92;1.30;;;;;;;;;;5006153;28;20243;-65
2023/09/01 07:38:43;;;;;;;1.85;1.20;;;;;;;;;;5005892;28;20230;-66
2023/09/01 07:41:09;;;;;;;1.20;1.10;;;;;;;;;;5007299;28;20497;-65
2023/09/01 07:43:35;;;;;;;1.55;1.38;;;;;;;;;;5006676;28;20264;-64
2023/09/01 07:46:02;;;;;;;2.00;1.20;;;;;;;;;;5006768;28;20206;-65
2023/09/01 07:48:28;;;;;;;3.42;1.15;;;;;;;;;;5007091;28;20206;-66
2023/09/01 07:50:55;;;;;;;1.33;1.23;;;;;;;;;;5006191;28;20222;-66
2023/09/01 07:53:21;;;;;;;1.45;1.35;;;;;;;;;;5006859;28;20206;-65
2023/09/01 07:55:49;;;;;;;2.25;1.30;;;;;;;;;;5006717;28;20210;-66
2023/09/01 07:58:15;;;;;;;1.55;1.48;;;;;;;;;;5006816;28;20230;-65
2023/09/01 08:00:42;;;;;;;2.25;1.15;;;;;;;;;;5006450;28;20214;-65
2023/09/01 08:03:11;;;;;;;2.75;1.45;;;;;;;;;;5006590;28;20760;-65
2023/09/01 08:05:37;;;;;;;3.03;1.30;;;;;;;;;;5006354;28;20241;-65
2023/09/01 08:08:04;;;;;;;1.45;1.35;;;;;;;;;;5008364;28;20285;-65
2023/09/01 08:10:30;;;;;;;1.40;0.95;;;;;;;;;;5008043;28;20210;-63
2023/09/01 08:12:58;;;;;;;2.90;1.40;;;;;;;;;;5007952;28;20210;-64
2023/09/01 08:15:24;;;;;;;1.83;1.20;;;;;;;;;;5007823;28;20214;-65
2023/09/01 08:17:50;;;;;;;1.63;1.30;;;;;;;;;;5007187;28;20545;-65
2023/09/01 08:20:17;;;;;;;2.50;1.23;;;;;;;;;;5006717;28;20220;-66
2023/09/01 08:22:43;;;;;;;6.13;1.30;;;;;;;;;;5005957;28;20317;-65
2023/09/01 08:25:10;;;;;;;1.67;1.60;;;;;;;;;;5006177;28;20265;-67
2023/09/01 08:27:36;;;;;;;2.10;1.27;;;;;;;;;;5006117;28;20217;-66
2023/09/01 08:30:04;;;;;;;2.80;1.20;;;;;;;;;;5006164;28;20216;-65
2023/09/01 08:32:30;;;;;;;2.47;1.45;;;;;;;;;;5005603;28;20229;-65
2023/09/01 08:34:57;;;;;;;3.70;1.42;;;;;;;;;;5005893;28;20202;-66
2023/09/01 08:37:23;;;;;;;1.30;1.30;;;;;;;;;;5005563;28;20222;-68
2023/09/01 08:39:49;;;;;;;1.83;1.73;;;;;;;;;;5005405;28;20271;-67
2023/09/01 08:42:17;;;;;;;2.25;2.00;;;;;;;;;;5005935;28;20233;-65
2023/09/01 08:44:44;;;;;;;1.85;1.45;;;;;;;;;;5005828;28;20206;-67
2023/09/01 08:47:11;;;;;;;1.42;1.40;;;;;;;;;;5005993;28;20214;-67
2023/09/01 08:49:38;;;;;;;2.00;1.83;;;;;;;;;;5006071;28;20217;-68
2023/09/01 08:52:04;;;;;;;1.65;1.55;;;;;;;;;;5005467;28;20745;-67
2023/09/01 08:54:31;;;;;;;1.92;1.80;;;;;;;;;;5005240;28;20218;-67
2023/09/01 08:56:57;;;;;;;1.63;1.52;;;;;;;;;;5005017;28;20268;-66
2023/09/01 08:59:24;;;;;;;1.95;1.55;;;;;;;;;;5006177;28;20686;-66
2023/09/01 09:01:51;;;;;;;1.40;1.40;;;;;;;;;;5005038;28;20233;-68
2023/09/01 09:04:18;;;;;;;6.72;2.00;;;;;;;;;;5005594;28;20246;-66
2023/09/01 09:06:45;;;;;;;2.90;1.25;;;;;;;;;;5005244;28;20226;-67
2023/09/01 09:09:14;;;;;;;2.97;1.35;;;;;;;;;;5005510;28;20203;-68
2023/09/01 09:11:54;;;;;;;1.40;1.25;;;;;;;;;;5006190;28;20624;-66
2023/09/01 09:14:20;;;;;;;1.27;1.05;;;;;;;;;;5008028;28;20217;-66
2023/09/01 09:16:52;;;;;;;1.27;1.13;;;;;;;;;;5008244;28;20213;-66
2023/09/01 09:19:20;;;;;;;1.45;1.30;;;;;;;;;;5010654;28;20222;-67
2023/09/01 09:21:47;;;;;;;1.73;1.33;;;;;;;;;;5008913;28;20234;-66
2023/09/01 09:24:13;;;;;;;1.15;1.00;;;;;;;;;;5009068;28;20329;-66
2023/09/01 09:26:39;;;;;;;3.30;1.27;;;;;;;;;;5008847;28;20220;-66
2023/09/01 09:29:07;;;;;;;1.27;1.17;;;;;;;;;;5006161;28;20256;-66
2023/09/01 09:31:36;;;;;;;1.30;1.20;;;;;;;;;;5007965;28;20226;-67
2023/09/01 09:34:11;;;;;;;1.02;1.02;;;;;;;;;;5008666;28;20206;-68
2023/09/01 09:36:39;;;;;;;1.38;1.27;;;;;;;;;;5007956;28;20241;-68
2023/09/01 09:39:06;;;;;;;1.67;1.10;;;;;;;;;;5008476;28;20229;-67
2023/09/01 09:41:44;;;;;;;0.80;0.80;;;;;;;;;;5008033;28;20280;-67
2023/09/01 09:44:11;;;;;;;1.30;0.70;;;;;;;;;;5001358;28;20256;-67
2023/09/01 09:46:40;;;;;;;1.40;0.85;;;;;;;;;;5008008;28;20272;-67
2023/09/01 09:49:07;;;;;;;1.27;0.70;;;;;;;;;;5008099;28;20293;-67
2023/09/01 09:51:33;;;;;;;3.03;0.90;;;;;;;;;;5007399;28;20667;-67
2023/09/01 09:54:03;;;;;;;1.10;0.75;;;;;;;;;;5008105;28;20213;-67
2023/09/01 09:56:32;;;;;;;3.65;1.00;;;;;;;;;;5007985;28;20673;-67
2023/09/01 09:58:58;;;;;;;1.42;0.90;;;;;;;;;;5008350;28;20246;-67
2023/09/01 10:01:25;;;;;;;3.28;1.05;;;;;;;;;;5007934;28;20249;-66
2023/09/01 10:03:51;;;;;;;0.73;0.73;;;;;;;;;;5011486;28;20221;-66
2023/09/01 10:06:17;;;;;;;2.95;1.10;;;;;;;;;;5011901;28;20209;-66
2023/09/01 10:08:44;;;;;;;1.00;1.00;;;;;;;;;;5012387;28;20256;-66
2023/09/01 10:11:12;;;;;;;1.13;0.65;;;;;;;;;;5008323;28;20603;-65
2023/09/01 10:13:40;;;;;;;1.00;0.90;;;;;;;;;;5011374;28;20578;-65
2023/09/01 10:16:07;;;;;;;1.42;0.80;;;;;;;;;;5011431;28;20214;-66
2023/09/01 10:18:34;;;;;;;1.17;1.00;;;;;;;;;;5011823;28;20228;-66
2023/09/01 10:21:01;;;;;;;0.90;0.90;;;;;;;;;;5011913;28;20730;-66
2023/09/01 10:23:27;;;;;;;1.55;0.70;;;;;;;;;;5011675;28;20217;-66
2023/09/01 10:26:14;;;;;;;0.85;0.85;;;;;;;;;;5011496;28;20265;-66
2023/09/01 10:28:53;;;;;;;3.05;0.73;;;;;;;;;;5012054;28;20206;-66
2023/09/01 10:31:20;;;;;;;0.98;0.93;;;;;;;;;;5004017;28;20769;-65
2023/09/01 10:33:46;;;;;;;1.27;0.85;;;;;;;;;;5011142;28;20214;-65
2023/09/01 10:36:13;;;;;;;2.67;1.00;;;;;;;;;;5008309;28;20217;-67
2023/09/01 10:38:40;;;;;;;1.35;0.80;;;;;;;;;;5007861;28;20226;-64
2023/09/01 10:41:07;;;;;;;1.40;1.00;;;;;;;;;;5011072;28;20588;-65
2023/09/01 10:43:59;;;;;;;1.65;0.93;;;;;;;;;;5010951;28;20293;-65
2023/09/01 10:46:26;;;;;;;1.13;0.80;;;;;;;;;;4996714;28;20209;-63
2023/09/01 10:48:53;;;;;;;1.27;0.98;;;;;;;;;;5010816;28;20218;-63
2023/09/01 10:51:20;;;;;;;1.27;0.82;;;;;;;;;;5010606;28;20632;-64
2023/09/01 10:53:46;;;;;;;1.77;0.90;;;;;;;;;;5011839;28;20709;-64
2023/09/01 10:56:12;;;;;;;2.70;0.85;;;;;;;;;;5010966;28;20237;-64
2023/09/01 10:58:39;;;;;;;3.13;1.10;;;;;;;;;;5010654;28;20226;-65
2023/09/01 11:01:30;;;;;;;3.83;0.80;;;;;;;;;;5010721;28;20237;-63
2023/09/01 11:03:57;;;;;;;0.98;0.70;;;;;;;;;;5010196;28;20280;-63
2023/09/01 11:06:23;;;;;;;2.47;0.77;;;;;;;;;;5010776;28;20656;-64
2023/09/01 11:09:00;;;;;;;1.25;1.10;;;;;;;;;;5010683;28;20201;-64
2023/09/01 11:11:26;;;;;;;2.20;0.80;;;;;;;;;;5011069;28;20761;-64
2023/09/01 11:14:00;;;;;;;0.98;0.95;;;;;;;;;;5010531;28;20210;-65
2023/09/01 11:16:26;;;;;;;1.38;0.90;;;;;;;;;;5007487;28;20213;-65
2023/09/01 11:19:00;;;;;;;0.85;0.82;;;;;;;;;;5010209;28;20312;-65
2023/09/01 11:21:27;;;;;;;2.00;0.95;;;;;;;;;;5010094;28;20232;-67
2023/09/01 11:23:57;;;;;;;0.77;0.65;;;;;;;;;;5009951;28;20202;-66
2023/09/01 11:26:23;;;;;;;2.97;0.88;;;;;;;;;;5009685;28;20206;-65
2023/09/01 11:28:49;;;;;;;2.10;1.10;;;;;;;;;;5009648;28;20671;-65
2023/09/01 11:31:15;;;;;;;1.85;0.70;;;;;;;;;;5010430;28;20228;-65
2023/09/01 11:33:42;;;;;;;1.38;0.98;;;;;;;;;;5010548;28;20206;-65
2023/09/01 11:36:10;;;;;;;1.20;0.90;;;;;;;;;;5010541;28;20268;-66
2023/09/01 11:38:37;;;;;;;1.67;0.90;;;;;;;;;;5010416;28;20222;-65
2023/09/01 11:41:04;;;;;;;1.35;0.88;;;;;;;;;;5009925;28;20679;-66
2023/09/01 11:43:30;;;;;;;1.65;0.70;;;;;;;;;;5009751;28;20673;-65
2023/09/01 11:45:57;;;;;;;2.35;1.30;;;;;;;;;;5009517;28;20210;-66
2023/09/01 11:48:23;;;;;;;1.10;1.10;;;;;;;;;;5009854;28;20202;-65
2023/09/01 11:50:50;;;;;;;2.00;1.10;;;;;;;;;;5010451;28;20288;-65
2023/09/01 11:53:23;;;;;;;1.02;0.90;;;;;;;;;;5009805;28;20213;-65
2023/09/01 11:55:50;;;;;;;0.80;0.80;;;;;;;;;;5010136;28;20264;-65
2023/09/01 11:58:17;;;;;;;0.88;0.88;;;;;;;;;;5009947;28;20225;-64
2023/09/01 12:00:43;;;;;;;0.85;0.85;;;;;;;;;;5009338;28;20212;-66
2023/09/01 12:03:09;;;;;;;1.85;0.90;;;;;;;;;;5009275;28;20228;-65
2023/09/01 12:05:36;;;;;;;0.60;0.60;;;;;;;;;;5009910;28;20205;-66
2023/09/01 12:08:03;;;;;;;0.90;0.90;;;;;;;;;;5006120;28;20218;-65
2023/09/01 12:10:31;;;;;;;1.30;0.90;;;;;;;;;;5009815;28;20202;-65
2023/09/01 12:13:01;;;;;;;0.50;0.50;;;;;;;;;;5009504;28;20206;-65
2023/09/01 12:15:28;;;;;;;1.65;0.77;;;;;;;;;;5009067;28;20206;-65
2023/09/01 12:17:54;;;;;;;0.90;0.80;;;;;;;;;;5009229;28;20213;-66
2023/09/01 12:20:20;;;;;;;0.60;0.60;;;;;;;;;;5007287;28;20222;-66
2023/09/01 12:22:46;;;;;;;0.68;0.55;;;;;;;;;;5009258;28;20233;-65
2023/09/01 12:25:14;;;;;;;1.95;0.60;;;;;;;;;;5005714;28;20221;-65
2023/09/01 12:27:41;;;;;;;0.70;0.70;;;;;;;;;;5005569;28;20214;-65
2023/09/01 12:30:08;;;;;;;1.30;0.77;;;;;;;;;;5005627;28;20221;-66
2023/09/01 12:32:34;;;;;;;1.33;0.70;;;;;;;;;;5005284;28;20218;-65
2023/09/01 12:35:01;;;;;;;1.02;0.90;;;;;;;;;;5005626;28;20213;-66
2023/09/01 12:37:27;;;;;;;1.35;0.50;;;;;;;;;;5005275;28;20209;-64
2023/09/01 12:39:53;;;;;;;0.65;0.60;;;;;;;;;;5005214;28;20226;-65
2023/09/01 12:42:19;;;;;;;3.40;0.70;;;;;;;;;;5005768;28;20233;-66
2023/09/01 12:44:47;;;;;;;1.25;0.65;;;;;;;;;;5007332;28;20678;-66
2023/09/01 12:47:13;;;;;;;2.55;0.70;;;;;;;;;;5007252;28;20622;-65
2023/09/01 12:49:43;;;;;;;1.00;0.77;;;;;;;;;;5007200;28;20805;-65
2023/09/01 12:52:09;;;;;;;1.35;0.60;;;;;;;;;;5006959;28;20228;-65
2023/09/01 12:54:35;;;;;;;0.60;0.60;;;;;;;;;;5007137;28;20210;-67
2023/09/01 12:57:02;;;;;;;1.20;0.73;;;;;;;;;;5007035;28;20220;-67
2023/09/01 12:59:28;;;;;;;0.80;0.68;;;;;;;;;;5007008;28;20441;-67
2023/09/01 13:01:56;;;;;;;0.95;0.80;;;;;;;;;;5006990;28;20229;-66
2023/09/01 13:04:22;;;;;;;1.27;1.05;;;;;;;;;;5006842;28;21053;-67
2023/09/01 13:06:49;;;;;;;0.80;0.80;;;;;;;;;;5006919;28;20627;-66
2023/09/01 13:09:15;;;;;;;0.80;0.80;;;;;;;;;;5006863;28;20237;-66
2023/09/01 13:11:41;;;;;;;0.70;0.70;;;;;;;;;;5006434;28;20222;-66
2023/09/01 13:14:07;;;;;;;1.38;0.80;;;;;;;;;;5006792;28;20210;-66
2023/09/01 13:16:34;;;;;;;1.05;0.80;;;;;;;;;;5006634;28;20206;-66
2023/09/01 13:19:01;;;;;;;1.38;0.80;;;;;;;;;;5006636;28;20222;-66
2023/09/01 13:21:27;;;;;;;0.90;0.75;;;;;;;;;;5006281;28;20226;-67
2023/09/01 13:23:54;;;;;;;0.80;0.80;;;;;;;;;;5006773;28;20209;-64
2023/09/01 13:26:20;;;;;;;1.38;0.98;;;;;;;;;;5006484;28;20217;-65
2023/09/01 13:28:46;;;;;;;1.15;0.95;;;;;;;;;;5006260;28;20628;-66
2023/09/01 13:31:13;;;;;;;0.80;0.77;;;;;;;;;;5006205;28;20226;-66
2023/09/01 13:33:40;;;;;;;0.68;0.68;;;;;;;;;;5006212;28;20206;-65
2023/09/01 13:36:08;;;;;;;0.80;0.80;;;;;;;;;;5006239;28;20210;-67
2023/09/01 13:38:35;;;;;;;2.42;0.73;;;;;;;;;;5006201;28;20717;-66
2023/09/01 13:41:02;;;;;;;0.60;0.60;;;;;;;;;;5006350;28;20234;-68
2023/09/01 13:43:29;;;;;;;0.77;0.77;;;;;;;;;;5005855;28;20208;-66
2023/09/01 13:45:55;;;;;;;2.13;0.70;;;;;;;;;;5006406;28;20202;-66
2023/09/01 13:48:21;;;;;;;1.05;0.88;;;;;;;;;;5006259;28;20648;-67
2023/09/01 13:50:47;;;;;;;0.70;0.70;;;;;;;;;;5006197;28;20206;-67
2023/09/01 13:53:15;;;;;;;0.88;0.80;;;;;;;;;;5006098;28;20217;-67
2023/09/01 13:55:41;;;;;;;1.02;0.90;;;;;;;;;;5006413;28;20210;-66
2023/09/01 13:58:07;;;;;;;0.60;0.60;;;;;;;;;;5006072;28;20524;-65
2023/09/01 14:00:34;;;;;;;1.95;0.88;;;;;;;;;;5005495;28;20233;-66
2023/09/01 14:03:00;;;;;;;2.05;0.80;;;;;;;;;;5005923;28;20698;-66
2023/09/01 14:05:26;;;;;;;2.10;0.90;;;;;;;;;;5005936;28;20210;-66
2023/09/01 14:07:52;;;;;;;0.73;0.60;;;;;;;;;;5006125;28;20206;-67
2023/09/01 14:10:20;;;;;;;1.92;1.08;;;;;;;;;;5006055;28;20210;-66
2023/09/01 14:12:46;;;;;;;1.30;0.90;;;;;;;;;;5005800;28;20228;-66
2023/09/01 14:15:13;;;;;;;0.80;0.80;;;;;;;;;;5006207;28;20213;-66
2023/09/01 14:17:40;;;;;;;0.88;0.88;;;;;;;;;;5005771;28;20213;-65
2023/09/01 14:20:07;;;;;;;0.60;0.60;;;;;;;;;;5006092;28;20228;-66
2023/09/01 14:22:33;;;;;;;0.88;0.80;;;;;;;;;;5005672;28;20725;-65
2023/09/01 14:24:59;;;;;;;0.70;0.70;;;;;;;;;;5005975;28;20213;-67
2023/09/01 14:27:27;;;;;;;1.30;0.80;;;;;;;;;;5006079;28;20221;-67
2023/09/01 14:29:53;;;;;;;0.80;0.80;;;;;;;;;;5006160;28;20210;-66
2023/09/01 14:32:19;;;;;;;2.13;1.20;;;;;;;;;;5005639;28;20225;-66
2023/09/01 14:34:46;;;;;;;0.75;0.75;;;;;;;;;;5005618;28;20209;-65
2023/09/01 14:37:12;;;;;;;1.55;1.20;;;;;;;;;;5005888;28;20305;-66
2023/09/01 14:39:38;;;;;;;1.58;0.70;;;;;;;;;;5005943;28;20218;-66
2023/09/01 14:42:04;;;;;;;1.63;0.82;;;;;;;;;;5006741;28;20218;-67